CCA439 ZGSD-ZBAA
Flight info
| Callsign | CCA439 |
|---|---|
| Flight time | N/A |
| Altitude | 35100 |
| Route | IDU02D IDUMA A461 BUBDA/K0867S1040 W56 REBIS/K0865S1070 W56 LEBUN/K0841S1100 W56 NUDKU/K0839S1070 W56 DUGEB DUGEB4A |
| Aircraft | A320/M-SDE3FGHIRWY/LB1 |
Departure
| Time | 2026-05-08 12:04 |
|---|---|
| Airport | Zhuhai Jinwan Airport (ZGSD) |
Arrival
| Time | N/A |
|---|---|
| Airport | Beijing Capital International Airport (ZBAA) |
| Time | Latitude | Longitude | Altitude | Speed | Heading |
|---|---|---|---|---|---|
| 2026-05-08 11:30 | 22.01066 | 113.37359 | 28 ft | 0 kts | 44° |
| 2026-05-08 11:49 | 22.01064 | 113.37357 | 28 ft | 2 kts | 45° |
| 2026-05-08 11:50 | 22.01054 | 113.37346 | 28 ft | 2 kts | 44° |
| 2026-05-08 11:50 | 22.01044 | 113.37336 | 28 ft | 2 kts | 44° |
| 2026-05-08 11:50 | 22.01033 | 113.37324 | 28 ft | 2 kts | 44° |
| 2026-05-08 11:50 | 22.01024 | 113.37311 | 28 ft | 2 kts | 76° |
| 2026-05-08 11:51 | 22.01024 | 113.37295 | 28 ft | 2 kts | 107° |
| 2026-05-08 11:51 | 22.01032 | 113.37281 | 28 ft | 2 kts | 139° |
| 2026-05-08 11:51 | 22.01037 | 113.37276 | 28 ft | 0 kts | 139° |
| 2026-05-08 11:54 | 22.01027 | 113.37287 | 28 ft | 4 kts | 134° |
| 2026-05-08 11:54 | 22.01003 | 113.37314 | 28 ft | 5 kts | 134° |
| 2026-05-08 11:54 | 22.00971 | 113.37349 | 28 ft | 7 kts | 134° |
| 2026-05-08 11:55 | 22.00933 | 113.37390 | 28 ft | 8 kts | 134° |
| 2026-05-08 11:55 | 22.00890 | 113.37436 | 28 ft | 9 kts | 134° |
| 2026-05-08 11:55 | 22.00843 | 113.37488 | 28 ft | 10 kts | 134° |
| 2026-05-08 11:55 | 22.00782 | 113.37523 | 28 ft | 10 kts | 192° |
| 2026-05-08 11:56 | 22.00725 | 113.37469 | 28 ft | 11 kts | 225° |
| 2026-05-08 11:56 | 22.00666 | 113.37406 | 28 ft | 12 kts | 224° |
| 2026-05-08 11:56 | 22.00603 | 113.37340 | 28 ft | 12 kts | 224° |
| 2026-05-08 11:56 | 22.00538 | 113.37271 | 28 ft | 13 kts | 224° |
| 2026-05-08 11:57 | 22.00470 | 113.37199 | 28 ft | 13 kts | 223° |
| 2026-05-08 11:57 | 22.00399 | 113.37126 | 28 ft | 14 kts | 225° |
| 2026-05-08 11:57 | 22.00328 | 113.37049 | 28 ft | 14 kts | 224° |
| 2026-05-08 11:57 | 22.00254 | 113.36971 | 28 ft | 14 kts | 225° |
| 2026-05-08 11:58 | 22.00180 | 113.36891 | 28 ft | 15 kts | 225° |
| 2026-05-08 11:58 | 22.00104 | 113.36810 | 28 ft | 15 kts | 224° |
| 2026-05-08 11:58 | 22.00027 | 113.36728 | 28 ft | 15 kts | 225° |
| 2026-05-08 11:59 | 21.99870 | 113.36561 | 28 ft | 16 kts | 224° |
| 2026-05-08 11:59 | 21.99790 | 113.36475 | 28 ft | 16 kts | 224° |
| 2026-05-08 11:59 | 21.99709 | 113.36390 | 28 ft | 16 kts | 225° |
| 2026-05-08 11:59 | 21.99640 | 113.36316 | 28 ft | 14 kts | 224° |
| 2026-05-08 12:00 | 21.99569 | 113.36241 | 28 ft | 14 kts | 226° |
| 2026-05-08 12:00 | 21.99504 | 113.36205 | 28 ft | 8 kts | 163° |
| 2026-05-08 12:00 | 21.99483 | 113.36220 | 28 ft | 0 kts | 132° |
| 2026-05-08 12:01 | 21.99482 | 113.36222 | 28 ft | 0 kts | 132° |
| 2026-05-08 12:01 | 21.99481 | 113.36223 | 28 ft | 0 kts | 132° |
| 2026-05-08 12:01 | 21.99480 | 113.36224 | 28 ft | 0 kts | 132° |
| 2026-05-08 12:02 | 21.99472 | 113.36233 | 28 ft | 3 kts | 134° |
| 2026-05-08 12:02 | 21.99438 | 113.36268 | 28 ft | 11 kts | 135° |
| 2026-05-08 12:02 | 21.99408 | 113.36327 | 28 ft | 8 kts | 46° |
| 2026-05-08 12:02 | 21.99451 | 113.36368 | 27 ft | 8 kts | 44° |
| 2026-05-08 12:03 | 21.99498 | 113.36418 | 27 ft | 13 kts | 45° |
| 2026-05-08 12:03 | 21.99708 | 113.36641 | 27 ft | 79 kts | 45° |
| 2026-05-08 12:03 | 22.00265 | 113.37233 | 29 ft | 143 kts | 44° |
| 2026-05-08 12:03 | 22.01089 | 113.38108 | 203 ft | 178 kts | 45° |
| 2026-05-08 12:04 | 22.01971 | 113.39048 | 816 ft | 181 kts | 45° |
| 2026-05-08 12:04 | 22.02854 | 113.39991 | 1564 ft | 180 kts | 46° |
| 2026-05-08 12:04 | 22.03744 | 113.40950 | 2183 ft | 186 kts | 46° |
| 2026-05-08 12:04 | 22.04693 | 113.41977 | 2567 ft | 202 kts | 46° |
| 2026-05-08 12:05 | 22.05733 | 113.43097 | 2918 ft | 221 kts | 45° |
| 2026-05-08 12:05 | 22.06904 | 113.44310 | 3258 ft | 243 kts | 42° |
| 2026-05-08 12:05 | 22.08207 | 113.45567 | 3719 ft | 260 kts | 42° |
| 2026-05-08 12:05 | 22.09590 | 113.46884 | 4380 ft | 268 kts | 43° |
| 2026-05-08 12:06 | 22.10990 | 113.48222 | 5125 ft | 272 kts | 42° |
| 2026-05-08 12:06 | 22.12415 | 113.49581 | 5872 ft | 275 kts | 42° |
| 2026-05-08 12:06 | 22.13855 | 113.50959 | 6626 ft | 279 kts | 41° |
| 2026-05-08 12:06 | 22.15305 | 113.52357 | 7328 ft | 283 kts | 41° |
| 2026-05-08 12:07 | 22.16792 | 113.53785 | 7975 ft | 288 kts | 40° |
| 2026-05-08 12:07 | 22.18295 | 113.55225 | 8664 ft | 291 kts | 41° |
| 2026-05-08 12:07 | 22.19810 | 113.56680 | 9333 ft | 293 kts | 40° |
| 2026-05-08 12:07 | 22.21334 | 113.58144 | 9964 ft | 296 kts | 40° |
| 2026-05-08 12:08 | 22.22893 | 113.59640 | 10441 ft | 305 kts | 40° |
| 2026-05-08 12:08 | 22.24537 | 113.61199 | 10726 ft | 322 kts | 38° |
| 2026-05-08 12:08 | 22.26335 | 113.62768 | 11006 ft | 338 kts | 37° |
| 2026-05-08 12:08 | 22.28228 | 113.64390 | 11271 ft | 354 kts | 37° |
| 2026-05-08 12:09 | 22.30201 | 113.66079 | 11580 ft | 367 kts | 37° |
| 2026-05-08 12:09 | 22.32217 | 113.67808 | 12102 ft | 372 kts | 37° |
| 2026-05-08 12:09 | 22.34262 | 113.69564 | 12678 ft | 375 kts | 37° |
| 2026-05-08 12:09 | 22.36316 | 113.71330 | 13216 ft | 379 kts | 37° |
| 2026-05-08 12:10 | 22.38397 | 113.73122 | 13749 ft | 383 kts | 37° |
| 2026-05-08 12:10 | 22.40489 | 113.74921 | 14279 ft | 385 kts | 37° |
| 2026-05-08 12:10 | 22.42595 | 113.76734 | 14787 ft | 389 kts | 37° |
| 2026-05-08 12:10 | 22.44705 | 113.78602 | 15256 ft | 393 kts | 39° |
| 2026-05-08 12:11 | 22.46777 | 113.80544 | 15738 ft | 396 kts | 39° |
| 2026-05-08 12:11 | 22.48861 | 113.82518 | 16209 ft | 399 kts | 40° |
| 2026-05-08 12:11 | 22.50963 | 113.84510 | 16648 ft | 402 kts | 39° |
| 2026-05-08 12:11 | 22.53078 | 113.86514 | 17075 ft | 405 kts | 39° |
| 2026-05-08 12:12 | 22.55212 | 113.88534 | 17497 ft | 409 kts | 39° |
| 2026-05-08 12:12 | 22.57357 | 113.90565 | 17947 ft | 411 kts | 39° |
| 2026-05-08 12:12 | 22.59515 | 113.92610 | 18408 ft | 413 kts | 39° |
| 2026-05-08 12:12 | 22.61681 | 113.94663 | 18863 ft | 414 kts | 39° |
| 2026-05-08 12:13 | 22.63865 | 113.96725 | 19303 ft | 416 kts | 37° |
| 2026-05-08 12:13 | 22.66297 | 113.98392 | 19696 ft | 413 kts | 20° |
| 2026-05-08 12:13 | 22.69072 | 113.99113 | 20153 ft | 409 kts | 1° |
| 2026-05-08 12:13 | 22.71890 | 113.98876 | 20602 ft | 406 kts | 345° |
| 2026-05-08 12:14 | 22.74493 | 113.97734 | 21016 ft | 404 kts | 328° |
| 2026-05-08 12:14 | 22.76657 | 113.95803 | 21439 ft | 404 kts | 311° |
| 2026-05-08 12:14 | 22.78401 | 113.93415 | 21942 ft | 404 kts | 308° |
| 2026-05-08 12:14 | 22.80116 | 113.90999 | 22356 ft | 406 kts | 308° |
| 2026-05-08 12:15 | 22.81847 | 113.88573 | 22745 ft | 408 kts | 308° |
| 2026-05-08 12:15 | 22.83599 | 113.86132 | 23147 ft | 410 kts | 308° |
| 2026-05-08 12:15 | 22.85350 | 113.83698 | 23541 ft | 411 kts | 308° |
| 2026-05-08 12:15 | 22.87116 | 113.81246 | 23918 ft | 413 kts | 307° |
| 2026-05-08 12:16 | 22.88896 | 113.78776 | 24250 ft | 416 kts | 308° |
| 2026-05-08 12:16 | 22.90907 | 113.76512 | 24553 ft | 420 kts | 321° |
| 2026-05-08 12:16 | 22.93462 | 113.74958 | 24868 ft | 426 kts | 337° |
| 2026-05-08 12:16 | 22.96382 | 113.74237 | 25180 ft | 434 kts | 353° |
| 2026-05-08 12:17 | 22.99421 | 113.74188 | 25512 ft | 437 kts | 357° |
| 2026-05-08 12:17 | 23.02490 | 113.74208 | 25785 ft | 441 kts | 357° |
| 2026-05-08 12:17 | 23.05581 | 113.74230 | 26069 ft | 444 kts | 357° |
| 2026-05-08 12:17 | 23.08677 | 113.74247 | 26376 ft | 446 kts | 357° |
| 2026-05-08 12:18 | 23.11795 | 113.74261 | 26677 ft | 447 kts | 356° |
| 2026-05-08 12:18 | 23.14929 | 113.74272 | 26953 ft | 450 kts | 356° |
| 2026-05-08 12:18 | 23.18074 | 113.74283 | 27222 ft | 452 kts | 356° |
| 2026-05-08 12:18 | 23.21250 | 113.74292 | 27467 ft | 455 kts | 356° |
| 2026-05-08 12:19 | 23.24428 | 113.74282 | 27702 ft | 456 kts | 353° |
| 2026-05-08 12:19 | 23.27539 | 113.73699 | 27878 ft | 450 kts | 337° |
| 2026-05-08 12:19 | 23.30327 | 113.72218 | 28106 ft | 443 kts | 322° |
| 2026-05-08 12:19 | 23.32625 | 113.70016 | 28329 ft | 438 kts | 308° |
| 2026-05-08 12:20 | 23.34457 | 113.67369 | 28564 ft | 437 kts | 303° |
| 2026-05-08 12:20 | 23.36235 | 113.64669 | 28772 ft | 439 kts | 303° |
| 2026-05-08 12:20 | 23.38019 | 113.61958 | 29010 ft | 440 kts | 303° |
| 2026-05-08 12:20 | 23.39798 | 113.59261 | 29295 ft | 439 kts | 303° |
| 2026-05-08 12:21 | 23.41581 | 113.56565 | 29639 ft | 437 kts | 303° |
| 2026-05-08 12:21 | 23.43262 | 113.54025 | 29962 ft | 435 kts | 303° |
| 2026-05-08 12:21 | 23.45042 | 113.51339 | 30270 ft | 434 kts | 303° |
| 2026-05-08 12:21 | 23.46803 | 113.48684 | 30553 ft | 433 kts | 304° |
| 2026-05-08 12:22 | 23.48734 | 113.46162 | 30835 ft | 434 kts | 311° |
| 2026-05-08 12:22 | 23.50992 | 113.43969 | 31117 ft | 436 kts | 319° |
| 2026-05-08 12:22 | 23.53527 | 113.42130 | 31393 ft | 439 kts | 326° |
| 2026-05-08 12:22 | 23.56301 | 113.40686 | 31666 ft | 443 kts | 334° |
| 2026-05-08 12:23 | 23.59262 | 113.39676 | 31957 ft | 447 kts | 342° |
| 2026-05-08 12:23 | 23.62354 | 113.39135 | 32239 ft | 451 kts | 350° |
| 2026-05-08 12:23 | 23.65509 | 113.39070 | 32639 ft | 452 kts | 355° |
| 2026-05-08 12:23 | 23.68640 | 113.39188 | 33124 ft | 447 kts | 356° |
| 2026-05-08 12:24 | 23.71744 | 113.39336 | 33499 ft | 445 kts | 356° |
| 2026-05-08 12:24 | 23.74841 | 113.39488 | 33741 ft | 445 kts | 356° |
| 2026-05-08 12:24 | 23.77951 | 113.39637 | 33926 ft | 446 kts | 356° |
| 2026-05-08 12:24 | 23.81058 | 113.39784 | 34099 ft | 447 kts | 356° |
| 2026-05-08 12:25 | 23.84172 | 113.39929 | 34287 ft | 447 kts | 356° |
| 2026-05-08 12:25 | 23.87287 | 113.40073 | 34474 ft | 447 kts | 356° |
| 2026-05-08 12:25 | 23.90409 | 113.40215 | 34644 ft | 448 kts | 356° |
| 2026-05-08 12:25 | 23.93539 | 113.40358 | 34811 ft | 448 kts | 356° |
| 2026-05-08 12:26 | 23.96657 | 113.40501 | 34978 ft | 448 kts | 356° |
| 2026-05-08 12:26 | 23.99787 | 113.40644 | 35118 ft | 449 kts | 356° |
| 2026-05-08 12:26 | 24.06059 | 113.40932 | 35124 ft | 450 kts | 356° |
| 2026-05-08 12:27 | 24.12344 | 113.41220 | 35113 ft | 449 kts | 356° |
| 2026-05-08 12:27 | 24.18605 | 113.41510 | 35116 ft | 449 kts | 356° |
| 2026-05-08 12:28 | 24.24852 | 113.41735 | 35122 ft | 449 kts | 355° |
| 2026-05-08 12:28 | 24.31108 | 113.41932 | 35119 ft | 449 kts | 355° |
| 2026-05-08 12:29 | 24.37362 | 113.42130 | 35148 ft | 448 kts | 355° |
| 2026-05-08 12:29 | 24.43621 | 113.42294 | 35160 ft | 449 kts | 355° |
| 2026-05-08 12:30 | 24.49885 | 113.42470 | 35171 ft | 449 kts | 355° |
| 2026-05-08 12:30 | 24.56140 | 113.42650 | 35177 ft | 448 kts | 355° |
| 2026-05-08 12:31 | 24.62393 | 113.42828 | 35172 ft | 448 kts | 355° |
| 2026-05-08 12:31 | 24.68648 | 113.43006 | 35169 ft | 448 kts | 355° |
| 2026-05-08 12:32 | 24.74886 | 113.43182 | 35162 ft | 448 kts | 354° |
| 2026-05-08 12:32 | 24.81032 | 113.43357 | 35166 ft | 448 kts | 354° |
| 2026-05-08 12:33 | 24.87284 | 113.43535 | 35173 ft | 448 kts | 354° |
| 2026-05-08 12:33 | 24.93544 | 113.43713 | 35181 ft | 448 kts | 354° |
| 2026-05-08 12:34 | 24.99790 | 113.43892 | 35192 ft | 447 kts | 354° |
| 2026-05-08 12:34 | 25.06026 | 113.44070 | 35206 ft | 448 kts | 354° |
| 2026-05-08 12:35 | 25.12275 | 113.44248 | 35211 ft | 448 kts | 354° |
| 2026-05-08 12:35 | 25.18517 | 113.44427 | 35211 ft | 447 kts | 354° |
| 2026-05-08 12:36 | 25.24755 | 113.44604 | 35213 ft | 447 kts | 354° |
| 2026-05-08 12:36 | 25.30997 | 113.44783 | 35217 ft | 448 kts | 354° |
| 2026-05-08 12:37 | 25.37240 | 113.44962 | 35219 ft | 448 kts | 354° |
| 2026-05-08 12:37 | 25.43479 | 113.45141 | 35223 ft | 448 kts | 354° |
| 2026-05-08 12:38 | 25.49723 | 113.45320 | 35228 ft | 447 kts | 354° |
| 2026-05-08 12:38 | 25.55962 | 113.45499 | 35234 ft | 447 kts | 354° |
| 2026-05-08 12:39 | 25.62195 | 113.45679 | 35237 ft | 448 kts | 354° |
| 2026-05-08 12:39 | 25.68436 | 113.45857 | 35236 ft | 448 kts | 354° |
| 2026-05-08 12:40 | 25.74671 | 113.46038 | 35243 ft | 447 kts | 354° |
| 2026-05-08 12:40 | 25.80909 | 113.46217 | 35243 ft | 447 kts | 354° |
| 2026-05-08 12:41 | 25.87134 | 113.46355 | 35236 ft | 445 kts | 352° |
| 2026-05-08 12:41 | 25.93339 | 113.46159 | 35238 ft | 445 kts | 350° |
| 2026-05-08 12:42 | 25.99542 | 113.45915 | 35235 ft | 445 kts | 350° |
| 2026-05-08 12:42 | 26.05748 | 113.45675 | 35237 ft | 445 kts | 350° |
| 2026-05-08 12:43 | 26.11953 | 113.45435 | 35238 ft | 445 kts | 350° |
| 2026-05-08 12:43 | 26.18164 | 113.45197 | 35238 ft | 445 kts | 350° |
| 2026-05-08 12:44 | 26.24362 | 113.44960 | 35238 ft | 445 kts | 350° |
| 2026-05-08 12:44 | 26.30558 | 113.44720 | 35238 ft | 445 kts | 350° |
| 2026-05-08 12:45 | 26.36760 | 113.44482 | 35236 ft | 444 kts | 350° |
| 2026-05-08 12:45 | 26.42946 | 113.44243 | 35235 ft | 444 kts | 349° |
| 2026-05-08 12:46 | 26.49131 | 113.44003 | 35235 ft | 444 kts | 349° |
| 2026-05-08 12:46 | 26.55319 | 113.43766 | 35236 ft | 444 kts | 349° |
| 2026-05-08 12:47 | 26.61504 | 113.43532 | 35238 ft | 444 kts | 349° |
| 2026-05-08 12:47 | 26.67692 | 113.43295 | 35238 ft | 444 kts | 349° |
| 2026-05-08 12:48 | 26.73873 | 113.43060 | 35236 ft | 443 kts | 349° |
| 2026-05-08 12:48 | 26.80059 | 113.42822 | 35237 ft | 443 kts | 349° |
| 2026-05-08 12:49 | 26.86240 | 113.42582 | 35239 ft | 443 kts | 349° |
| 2026-05-08 12:49 | 26.92212 | 113.42352 | 35243 ft | 443 kts | 349° |
| 2026-05-08 12:50 | 26.98393 | 113.42113 | 35247 ft | 443 kts | 349° |
| 2026-05-08 12:50 | 27.04563 | 113.41874 | 35243 ft | 443 kts | 349° |
| 2026-05-08 12:51 | 27.13816 | 113.41516 | 35248 ft | 442 kts | 349° |
| 2026-05-08 12:52 | 27.19971 | 113.41278 | 35247 ft | 442 kts | 349° |
| 2026-05-08 12:52 | 27.29203 | 113.40918 | 35248 ft | 442 kts | 349° |
| 2026-05-08 12:53 | 27.35381 | 113.40820 | 35247 ft | 444 kts | 352° |
| 2026-05-08 12:53 | 27.41576 | 113.40943 | 35247 ft | 443 kts | 352° |
| 2026-05-08 12:54 | 27.47752 | 113.41070 | 35249 ft | 443 kts | 351° |
| 2026-05-08 12:54 | 27.53913 | 113.41191 | 35252 ft | 442 kts | 351° |
| 2026-05-08 12:55 | 27.60082 | 113.41313 | 35255 ft | 442 kts | 351° |
| 2026-05-08 12:55 | 27.66259 | 113.41501 | 35255 ft | 445 kts | 354° |
| 2026-05-08 12:56 | 27.72442 | 113.42028 | 35256 ft | 444 kts | 354° |
| 2026-05-08 12:56 | 27.78612 | 113.42586 | 35257 ft | 444 kts | 354° |
| 2026-05-08 12:57 | 27.84779 | 113.43135 | 35259 ft | 443 kts | 354° |
| 2026-05-08 12:57 | 27.90951 | 113.43681 | 35259 ft | 443 kts | 354° |
| 2026-05-08 12:58 | 27.97113 | 113.44222 | 35260 ft | 443 kts | 354° |
| 2026-05-08 12:58 | 28.03264 | 113.44756 | 35260 ft | 443 kts | 354° |
| 2026-05-08 12:59 | 28.09425 | 113.45293 | 35260 ft | 443 kts | 354° |
| 2026-05-08 12:59 | 28.15573 | 113.45740 | 35259 ft | 442 kts | 353° |
| 2026-05-08 13:00 | 28.21715 | 113.46166 | 35259 ft | 442 kts | 353° |
| 2026-05-08 13:00 | 28.27875 | 113.46608 | 35259 ft | 442 kts | 353° |
| 2026-05-08 13:01 | 28.34019 | 113.47050 | 35260 ft | 442 kts | 353° |
| 2026-05-08 13:01 | 28.40168 | 113.47492 | 35260 ft | 442 kts | 353° |
| 2026-05-08 13:02 | 28.46319 | 113.47932 | 35259 ft | 443 kts | 353° |
| 2026-05-08 13:02 | 28.52472 | 113.48373 | 35261 ft | 442 kts | 352° |
| 2026-05-08 13:03 | 28.58623 | 113.48811 | 35261 ft | 442 kts | 352° |
| 2026-05-08 13:03 | 28.64779 | 113.49252 | 35262 ft | 442 kts | 352° |
| 2026-05-08 13:04 | 28.70931 | 113.49692 | 35263 ft | 442 kts | 352° |
| 2026-05-08 13:04 | 28.77079 | 113.50132 | 35262 ft | 442 kts | 352° |
| 2026-05-08 13:05 | 28.83240 | 113.50575 | 35264 ft | 442 kts | 352° |
| 2026-05-08 13:05 | 28.89388 | 113.51018 | 35263 ft | 442 kts | 352° |
| 2026-05-08 13:06 | 28.95533 | 113.51460 | 35263 ft | 442 kts | 352° |
| 2026-05-08 13:06 | 29.01693 | 113.51904 | 35262 ft | 442 kts | 352° |
| 2026-05-08 13:07 | 29.07844 | 113.52347 | 35267 ft | 442 kts | 352° |
| 2026-05-08 13:07 | 29.14003 | 113.52790 | 35270 ft | 442 kts | 352° |
| 2026-05-08 13:08 | 29.20153 | 113.53234 | 35263 ft | 443 kts | 352° |
| 2026-05-08 13:08 | 29.26314 | 113.53680 | 35258 ft | 443 kts | 352° |
| 2026-05-08 13:09 | 29.32484 | 113.54167 | 35261 ft | 443 kts | 353° |
| 2026-05-08 13:09 | 29.38645 | 113.54710 | 35254 ft | 443 kts | 353° |
| 2026-05-08 13:10 | 29.44803 | 113.55250 | 35250 ft | 443 kts | 353° |
| 2026-05-08 13:10 | 29.50958 | 113.55786 | 35247 ft | 443 kts | 353° |
| 2026-05-08 13:11 | 29.57118 | 113.56320 | 35247 ft | 444 kts | 353° |
| 2026-05-08 13:11 | 29.63283 | 113.56855 | 35244 ft | 444 kts | 352° |
| 2026-05-08 13:12 | 29.69456 | 113.57393 | 35243 ft | 443 kts | 353° |
| 2026-05-08 13:12 | 29.75622 | 113.57927 | 35238 ft | 444 kts | 353° |
| 2026-05-08 13:13 | 29.81785 | 113.58467 | 35235 ft | 443 kts | 352° |
| 2026-05-08 13:13 | 29.87950 | 113.59102 | 35234 ft | 447 kts | 356° |
| 2026-05-08 13:14 | 29.94135 | 113.60416 | 35233 ft | 456 kts | 2° |
| 2026-05-08 13:14 | 29.99695 | 113.62299 | 35234 ft | 468 kts | 8° |
| 2026-05-08 13:15 | 30.05815 | 113.65146 | 35227 ft | 476 kts | 12° |
| 2026-05-08 13:15 | 30.11883 | 113.68200 | 35234 ft | 476 kts | 13° |
| 2026-05-08 13:16 | 30.17648 | 113.71101 | 35232 ft | 475 kts | 12° |
| 2026-05-08 13:16 | 30.23719 | 113.74142 | 35236 ft | 475 kts | 12° |
| 2026-05-08 13:17 | 30.29779 | 113.77180 | 35232 ft | 474 kts | 12° |
| 2026-05-08 13:17 | 30.35859 | 113.80228 | 35235 ft | 476 kts | 13° |
| 2026-05-08 13:18 | 30.41960 | 113.83288 | 35231 ft | 479 kts | 13° |
| 2026-05-08 13:18 | 30.48063 | 113.86364 | 35229 ft | 478 kts | 13° |
| 2026-05-08 13:19 | 30.54180 | 113.89444 | 35233 ft | 478 kts | 13° |
| 2026-05-08 13:19 | 30.60285 | 113.92525 | 35223 ft | 478 kts | 13° |
| 2026-05-08 13:20 | 30.66390 | 113.95571 | 35227 ft | 476 kts | 12° |
| 2026-05-08 13:20 | 30.72497 | 113.98665 | 35226 ft | 481 kts | 15° |
| 2026-05-08 13:21 | 30.78568 | 114.02065 | 35222 ft | 483 kts | 15° |
| 2026-05-08 13:21 | 30.84643 | 114.05369 | 35213 ft | 480 kts | 15° |
| 2026-05-08 13:22 | 30.90721 | 114.08646 | 35215 ft | 482 kts | 15° |
| 2026-05-08 13:22 | 30.96810 | 114.11947 | 35216 ft | 482 kts | 15° |
| 2026-05-08 13:23 | 31.02900 | 114.15254 | 35218 ft | 482 kts | 15° |
| 2026-05-08 13:23 | 31.09003 | 114.18570 | 35211 ft | 484 kts | 15° |
| 2026-05-08 13:24 | 31.15106 | 114.21892 | 35207 ft | 483 kts | 15° |
| 2026-05-08 13:24 | 31.21200 | 114.25216 | 35218 ft | 483 kts | 15° |
| 2026-05-08 13:25 | 31.27280 | 114.28523 | 35214 ft | 480 kts | 14° |
| 2026-05-08 13:25 | 31.33487 | 114.31227 | 35222 ft | 469 kts | 6° |
| 2026-05-08 13:26 | 31.39795 | 114.32887 | 35221 ft | 458 kts | 358° |
| 2026-05-08 13:26 | 31.46106 | 114.33549 | 35223 ft | 451 kts | 351° |
| 2026-05-08 13:27 | 31.52357 | 114.33716 | 35227 ft | 448 kts | 351° |
| 2026-05-08 13:27 | 31.58595 | 114.33874 | 35230 ft | 448 kts | 351° |
| 2026-05-08 13:28 | 31.64855 | 114.34048 | 35237 ft | 448 kts | 351° |
| 2026-05-08 13:28 | 31.71110 | 114.34228 | 35235 ft | 449 kts | 352° |
| 2026-05-08 13:29 | 31.77367 | 114.34417 | 35234 ft | 450 kts | 352° |
| 2026-05-08 13:29 | 31.83631 | 114.34611 | 35239 ft | 449 kts | 351° |
| 2026-05-08 13:30 | 31.89875 | 114.34801 | 35239 ft | 449 kts | 352° |
| 2026-05-08 13:30 | 31.96135 | 114.34990 | 35245 ft | 448 kts | 352° |
| 2026-05-08 13:31 | 32.02368 | 114.35177 | 35235 ft | 448 kts | 352° |
| 2026-05-08 13:31 | 32.08644 | 114.35364 | 35247 ft | 449 kts | 352° |
| 2026-05-08 13:32 | 32.14894 | 114.35553 | 35246 ft | 447 kts | 352° |
| 2026-05-08 13:32 | 32.20891 | 114.35735 | 35238 ft | 450 kts | 352° |
| 2026-05-08 13:33 | 32.27155 | 114.36011 | 35236 ft | 452 kts | 354° |
| 2026-05-08 13:33 | 32.33424 | 114.36571 | 35241 ft | 451 kts | 355° |
| 2026-05-08 13:34 | 32.39700 | 114.37152 | 35232 ft | 451 kts | 355° |
| 2026-05-08 13:34 | 32.45975 | 114.37730 | 35233 ft | 452 kts | 355° |
| 2026-05-08 13:35 | 32.52244 | 114.38306 | 35226 ft | 451 kts | 355° |
| 2026-05-08 13:35 | 32.58519 | 114.38879 | 35234 ft | 451 kts | 355° |
| 2026-05-08 13:36 | 32.64783 | 114.39452 | 35229 ft | 452 kts | 356° |
| 2026-05-08 13:36 | 32.71064 | 114.40035 | 35221 ft | 452 kts | 356° |
| 2026-05-08 13:37 | 32.77331 | 114.40621 | 35224 ft | 452 kts | 356° |
| 2026-05-08 13:37 | 32.83591 | 114.41205 | 35217 ft | 451 kts | 356° |
| 2026-05-08 13:38 | 32.89854 | 114.41791 | 35227 ft | 451 kts | 356° |
| 2026-05-08 13:38 | 32.96122 | 114.42374 | 35232 ft | 450 kts | 356° |
| 2026-05-08 13:39 | 33.02389 | 114.42963 | 35229 ft | 451 kts | 356° |
| 2026-05-08 13:39 | 33.08647 | 114.43548 | 35224 ft | 451 kts | 356° |
| 2026-05-08 13:40 | 33.14919 | 114.44137 | 35234 ft | 451 kts | 356° |
| 2026-05-08 13:40 | 33.21171 | 114.44726 | 35229 ft | 450 kts | 356° |
| 2026-05-08 13:41 | 33.27417 | 114.45312 | 35227 ft | 449 kts | 356° |
| 2026-05-08 13:41 | 33.33660 | 114.45900 | 35223 ft | 449 kts | 356° |
| 2026-05-08 13:42 | 33.39899 | 114.46486 | 35224 ft | 449 kts | 356° |
| 2026-05-08 13:42 | 33.46134 | 114.47075 | 35230 ft | 448 kts | 356° |
| 2026-05-08 13:43 | 33.52308 | 114.47677 | 35935 ft | 436 kts | 356° |
| 2026-05-08 13:43 | 33.55288 | 114.48011 | 36618 ft | 425 kts | 356° |
| 2026-05-08 13:43 | 33.58187 | 114.48367 | 37264 ft | 414 kts | 356° |
| 2026-05-08 13:44 | 33.61023 | 114.48747 | 37842 ft | 405 kts | 356° |
| 2026-05-08 13:44 | 33.63845 | 114.49024 | 37729 ft | 408 kts | 352° |
| 2026-05-08 13:44 | 33.69601 | 114.49349 | 37664 ft | 421 kts | 353° |
| 2026-05-08 13:45 | 33.72571 | 114.49569 | 37502 ft | 431 kts | 354° |
| 2026-05-08 13:45 | 33.75611 | 114.49826 | 37220 ft | 442 kts | 355° |
| 2026-05-08 13:45 | 33.81796 | 114.50409 | 37232 ft | 449 kts | 355° |
| 2026-05-08 13:46 | 33.88058 | 114.51007 | 37224 ft | 451 kts | 355° |
| 2026-05-08 13:46 | 33.91200 | 114.51304 | 37061 ft | 452 kts | 356° |
| 2026-05-08 13:46 | 33.94338 | 114.51601 | 37164 ft | 452 kts | 356° |
| 2026-05-08 13:47 | 34.00620 | 114.52198 | 37211 ft | 453 kts | 355° |
| 2026-05-08 13:47 | 34.06906 | 114.52793 | 37210 ft | 452 kts | 355° |
| 2026-05-08 13:48 | 34.13190 | 114.53388 | 37214 ft | 452 kts | 355° |
| 2026-05-08 13:48 | 34.19392 | 114.53977 | 37211 ft | 451 kts | 355° |
| 2026-05-08 13:49 | 34.25678 | 114.54574 | 37204 ft | 451 kts | 355° |
| 2026-05-08 13:49 | 34.31941 | 114.55168 | 37206 ft | 451 kts | 355° |
| 2026-05-08 13:50 | 34.38200 | 114.55763 | 37199 ft | 451 kts | 355° |
| 2026-05-08 13:50 | 34.44468 | 114.56359 | 37206 ft | 452 kts | 355° |
| 2026-05-08 13:51 | 34.50729 | 114.56957 | 37200 ft | 450 kts | 355° |
| 2026-05-08 13:51 | 34.56976 | 114.57550 | 37203 ft | 449 kts | 355° |
| 2026-05-08 13:52 | 34.63196 | 114.58142 | 37212 ft | 449 kts | 355° |
| 2026-05-08 13:52 | 34.69416 | 114.58733 | 37201 ft | 448 kts | 355° |
| 2026-05-08 13:53 | 34.72527 | 114.59029 | 37392 ft | 447 kts | 355° |
| 2026-05-08 13:53 | 34.75625 | 114.59324 | 37267 ft | 447 kts | 355° |
| 2026-05-08 13:53 | 34.81838 | 114.59916 | 37199 ft | 447 kts | 355° |
| 2026-05-08 13:54 | 34.88052 | 114.60509 | 37207 ft | 447 kts | 355° |
| 2026-05-08 13:54 | 34.94262 | 114.61103 | 37190 ft | 446 kts | 355° |
| 2026-05-08 13:55 | 35.00440 | 114.61695 | 37200 ft | 445 kts | 354° |
| 2026-05-08 13:56 | 35.09718 | 114.62585 | 37189 ft | 444 kts | 354° |
| 2026-05-08 13:56 | 35.15884 | 114.63177 | 37184 ft | 444 kts | 354° |
| 2026-05-08 13:57 | 35.22060 | 114.63771 | 37183 ft | 444 kts | 354° |
| 2026-05-08 13:57 | 35.28219 | 114.64365 | 37178 ft | 444 kts | 354° |
| 2026-05-08 13:58 | 35.34459 | 114.64969 | 37175 ft | 442 kts | 354° |
| 2026-05-08 13:58 | 35.40638 | 114.65566 | 37172 ft | 443 kts | 355° |
| 2026-05-08 13:59 | 35.46692 | 114.66151 | 37174 ft | 443 kts | 355° |
| 2026-05-08 13:59 | 35.52400 | 114.66706 | 37165 ft | 443 kts | 355° |